createdAt,value
2018-09-23T00:01:19.923Z,5.87
2018-09-23T00:03:48.323Z,5.70
2018-09-23T00:06:16.421Z,6.00
2018-09-23T00:08:44.627Z,7.17
2018-09-23T00:11:12.717Z,6.13
2018-09-23T00:13:40.784Z,7.23
2018-09-23T00:16:08.870Z,5.50
2018-09-23T00:18:37.042Z,5.37
2018-09-23T00:21:05.112Z,5.73
2018-09-23T00:23:33.213Z,5.90
2018-09-23T00:26:01.870Z,4.60
2018-09-23T00:28:29.994Z,6.43
2018-09-23T00:30:58.118Z,5.27
2018-09-23T00:33:26.195Z,5.27
2018-09-23T00:35:54.274Z,5.20
2018-09-23T00:38:22.378Z,4.83
2018-09-23T00:40:50.491Z,5.17
2018-09-23T00:43:18.660Z,4.03
2018-09-23T00:45:46.786Z,5.00
2018-09-23T00:48:14.908Z,4.37
2018-09-23T00:50:43.014Z,5.13
2018-09-23T00:53:11.120Z,5.80
2018-09-23T00:55:39.225Z,4.97
2018-09-23T00:58:07.335Z,5.20
2018-09-23T01:00:35.418Z,5.50
2018-09-23T01:03:03.488Z,5.33
2018-09-23T01:05:31.589Z,5.17
2018-09-23T01:07:59.697Z,5.47
2018-09-23T01:10:27.785Z,5.40
2018-09-23T01:12:55.861Z,6.20
2018-09-23T01:15:23.938Z,5.57
2018-09-23T01:17:52.091Z,5.67
2018-09-23T01:20:20.535Z,5.50
2018-09-23T01:22:48.649Z,6.13
2018-09-23T01:25:16.751Z,6.03
2018-09-23T01:27:44.834Z,5.90
2018-09-23T01:30:12.963Z,5.70
2018-09-23T01:32:41.064Z,6.10
2018-09-23T01:35:09.266Z,4.80
2018-09-23T01:37:37.360Z,7.42
2018-09-23T01:40:05.538Z,6.08
2018-09-23T01:42:33.951Z,5.60
2018-09-23T01:45:02.045Z,5.53
2018-09-23T01:47:30.142Z,5.50
2018-09-23T01:49:58.238Z,5.53
2018-09-23T01:52:26.353Z,5.30
2018-09-23T01:54:54.514Z,5.47
2018-09-23T01:57:22.620Z,5.27
2018-09-23T01:59:50.735Z,5.23
2018-09-23T02:02:18.831Z,5.87
2018-09-23T02:04:46.928Z,5.50
2018-09-23T02:07:15.014Z,5.90
2018-09-23T02:09:43.146Z,5.77
2018-09-23T02:12:11.238Z,5.80
2018-09-23T02:14:39.346Z,6.00
2018-09-23T02:17:07.465Z,6.03
2018-09-23T02:19:35.555Z,5.30
2018-09-23T02:22:03.696Z,5.27
2018-09-23T02:24:31.784Z,6.17
2018-09-23T02:26:59.891Z,5.90
2018-09-23T02:29:28.044Z,6.03
2018-09-23T02:31:56.520Z,5.60
2018-09-23T02:34:24.644Z,5.83
2018-09-23T02:36:52.799Z,6.33
2018-09-23T02:39:20.885Z,6.33
2018-09-23T02:41:48.989Z,6.40
2018-09-23T02:44:17.099Z,6.20
2018-09-23T02:46:45.182Z,6.30
2018-09-23T02:49:13.280Z,6.37
2018-09-23T02:51:41.383Z,6.60
2018-09-23T02:54:09.450Z,8.20
2018-09-23T02:56:37.530Z,6.43
2018-09-23T02:59:05.610Z,6.63
2018-09-23T03:01:33.704Z,6.50
2018-09-23T03:04:01.825Z,6.23
2018-09-23T03:06:29.909Z,6.60
2018-09-23T03:08:58.058Z,6.90
2018-09-23T03:11:26.163Z,6.00
2018-09-23T03:13:54.236Z,7.00
2018-09-23T03:16:22.335Z,7.40
2018-09-23T03:18:50.423Z,7.90
2018-09-23T03:21:18.517Z,6.77
2018-09-23T03:23:46.604Z,6.90
2018-09-23T03:26:14.695Z,7.60
2018-09-23T03:28:42.854Z,8.77
2018-09-23T03:31:10.934Z,6.30
2018-09-23T03:33:39.140Z,7.67
2018-09-23T03:36:07.252Z,7.70
2018-09-23T03:38:35.354Z,9.70
2018-09-23T03:41:03.430Z,7.83
2018-09-23T03:43:31.548Z,8.13
2018-09-23T03:45:59.627Z,8.70
2018-09-23T03:48:27.758Z,8.40
2018-09-23T03:50:56.053Z,8.30
2018-09-23T03:53:24.144Z,9.27
2018-09-23T03:55:52.256Z,9.80
2018-09-23T03:58:20.344Z,9.33
2018-09-23T04:00:48.443Z,7.73
2018-09-23T04:03:16.548Z,9.73
2018-09-23T04:05:44.641Z,8.37
2018-09-23T04:08:12.742Z,9.07
2018-09-23T04:10:40.855Z,9.37
2018-09-23T04:13:08.948Z,8.63
2018-09-23T04:15:37.048Z,9.07
2018-09-23T04:18:05.443Z,9.40
2018-09-23T04:20:33.515Z,8.57
2018-09-23T04:23:01.887Z,9.00
2018-09-23T04:25:30.011Z,8.77
2018-09-23T04:27:58.135Z,8.70
2018-09-23T04:30:26.232Z,9.50
2018-09-23T04:32:54.335Z,10.47
2018-09-23T04:35:22.423Z,10.07
2018-09-23T04:37:50.530Z,10.30
2018-09-23T04:40:18.651Z,10.27
2018-09-23T04:42:46.741Z,9.47
2018-09-23T04:45:14.827Z,9.80
2018-09-23T04:47:42.930Z,10.17
2018-09-23T04:50:11.038Z,10.33
2018-09-23T04:52:39.289Z,10.00
2018-09-23T04:55:07.422Z,10.57
2018-09-23T04:57:35.530Z,10.60
2018-09-23T05:00:03.654Z,9.77
2018-09-23T05:02:31.747Z,9.53
2018-09-23T05:04:59.942Z,10.43
2018-09-23T05:07:28.046Z,11.70
2018-09-23T05:09:56.161Z,9.77
2018-09-23T05:12:24.556Z,10.23
2018-09-23T05:14:52.693Z,10.23
2018-09-23T05:17:20.790Z,11.53
2018-09-23T05:19:48.875Z,10.97
2018-09-23T05:22:16.966Z,10.23
2018-09-23T05:24:45.088Z,11.43
2018-09-23T05:27:13.179Z,11.00
2018-09-23T05:29:41.949Z,11.10
2018-09-23T05:32:10.039Z,10.87
2018-09-23T05:34:38.122Z,10.43
2018-09-23T05:37:06.503Z,10.87
2018-09-23T05:39:34.576Z,11.07
2018-09-23T05:42:02.662Z,10.83
2018-09-23T05:44:30.774Z,10.27
2018-09-23T05:46:58.894Z,11.10
2018-09-23T05:49:27.035Z,10.80
2018-09-23T05:51:55.114Z,11.13
2018-09-23T05:54:23.231Z,9.70
2018-09-23T05:56:51.390Z,11.00
2018-09-23T05:59:19.489Z,9.50
2018-09-23T06:01:47.612Z,10.77
2018-09-23T06:04:15.715Z,11.27
2018-09-23T06:06:43.820Z,11.03
2018-09-23T06:09:11.907Z,10.77
2018-09-23T06:11:40.005Z,10.93
2018-09-23T06:14:08.138Z,11.03
2018-09-23T06:16:36.226Z,10.87
2018-09-23T06:19:04.325Z,10.73
2018-09-23T06:21:32.453Z,11.43
2018-09-23T06:24:00.587Z,11.37
2018-09-23T06:26:28.690Z,12.10
2018-09-23T06:28:56.814Z,10.90
2018-09-23T06:31:24.918Z,12.00
2018-09-23T06:33:53.064Z,11.87
2018-09-23T06:36:21.155Z,11.63
2018-09-23T06:38:49.810Z,10.73
2018-09-23T06:41:17.877Z,10.90
2018-09-23T06:43:46.001Z,12.07
2018-09-23T06:46:14.137Z,12.03
2018-09-23T06:48:42.230Z,12.13
2018-09-23T06:51:10.361Z,11.50
2018-09-23T06:53:38.457Z,11.17
2018-09-23T06:56:06.620Z,12.27
2018-09-23T06:58:34.726Z,11.37
2018-09-23T07:01:02.839Z,11.93
2018-09-23T07:03:30.983Z,12.47
2018-09-23T07:05:59.106Z,12.47
2018-09-23T07:08:27.275Z,11.63
2018-09-23T07:10:55.380Z,12.27
2018-09-23T07:13:23.506Z,11.60
2018-09-23T07:15:51.624Z,12.03
2018-09-23T07:18:20.089Z,12.17
2018-09-23T07:20:48.187Z,12.07
2018-09-23T07:23:16.262Z,11.20
2018-09-23T07:25:44.363Z,13.23
2018-09-23T07:28:12.458Z,12.30
2018-09-23T07:30:40.623Z,12.73
2018-09-23T07:33:08.861Z,13.03
2018-09-23T07:35:37.001Z,12.90
2018-09-23T07:38:05.128Z,12.30
2018-09-23T07:40:33.268Z,12.00
2018-09-23T07:43:01.401Z,12.43
2018-09-23T07:45:29.558Z,12.57
2018-09-23T07:48:00.665Z,12.40
2018-09-23T07:50:28.790Z,10.90
2018-09-23T07:52:56.991Z,13.07
2018-09-23T07:55:25.114Z,13.03
2018-09-23T07:57:53.214Z,12.47
2018-09-23T08:00:21.362Z,11.80
2018-09-23T08:02:49.447Z,12.43
2018-09-23T08:05:17.579Z,12.30
2018-09-23T08:07:45.698Z,13.43
2018-09-23T08:10:13.797Z,14.57
2018-09-23T08:12:41.993Z,16.27
2018-09-23T08:15:09.985Z,15.30
2018-09-23T08:17:38.091Z,13.80
2018-09-23T08:20:06.761Z,13.57
2018-09-23T08:22:34.843Z,14.40
2018-09-23T08:25:03.006Z,15.93
2018-09-23T08:27:31.146Z,14.00
2018-09-23T08:29:59.258Z,15.00
2018-09-23T08:32:27.383Z,14.90
2018-09-23T08:34:55.542Z,16.17
2018-09-23T08:37:23.851Z,14.70
2018-09-23T08:39:52.007Z,14.40
2018-09-23T08:42:20.112Z,15.30
2018-09-23T08:44:48.199Z,16.23
2018-09-23T08:47:16.307Z,17.75
2018-09-23T08:49:44.491Z,15.00
2018-09-23T08:52:13.068Z,13.97
2018-09-23T08:54:41.139Z,14.17
2018-09-23T08:57:09.276Z,13.30
2018-09-23T08:59:37.431Z,14.77
2018-09-23T09:02:05.562Z,14.97
2018-09-23T09:04:33.732Z,14.73
2018-09-23T09:07:01.991Z,14.63
2018-09-23T09:09:30.143Z,13.50
2018-09-23T09:11:58.363Z,13.83
2018-09-23T09:14:26.386Z,14.70
2018-09-23T09:16:54.582Z,13.83
2018-09-23T09:19:22.713Z,13.50
2018-09-23T09:21:50.780Z,13.87
2018-09-23T09:24:18.886Z,13.47
2018-09-23T09:26:47.134Z,13.47
2018-09-23T09:29:15.219Z,13.90
2018-09-23T09:31:43.534Z,13.23
2018-09-23T09:34:11.633Z,11.97
2018-09-23T09:36:39.959Z,11.03
2018-09-23T09:39:09.034Z,10.30
2018-09-23T09:41:37.111Z,9.97
2018-09-23T09:44:05.400Z,9.33
2018-09-23T09:46:33.461Z,9.60
2018-09-23T09:49:01.616Z,9.13
2018-09-23T09:51:29.715Z,8.60
2018-09-23T09:53:57.862Z,8.53
2018-09-23T09:56:25.987Z,8.47
2018-09-23T09:58:54.059Z,9.47
2018-09-23T10:01:22.159Z,8.00
2018-09-23T10:03:50.299Z,8.23
2018-09-23T10:06:18.631Z,8.40
2018-09-23T10:08:46.750Z,8.07
2018-09-23T10:11:14.842Z,8.00
2018-09-23T10:13:42.935Z,7.87
2018-09-23T10:16:11.099Z,7.27
2018-09-23T10:18:39.198Z,6.67
2018-09-23T10:21:07.367Z,7.60
2018-09-23T10:23:35.594Z,9.47
2018-09-23T10:26:03.634Z,7.03
2018-09-23T10:28:32.871Z,7.80
2018-09-23T10:31:01.002Z,7.77
2018-09-23T10:33:29.083Z,7.10
2018-09-23T10:35:57.244Z,8.07
2018-09-23T10:38:25.377Z,9.30
2018-09-23T10:40:53.532Z,10.17
2018-09-23T10:43:21.797Z,9.53
2018-09-23T10:45:49.968Z,8.23
2018-09-23T10:48:18.075Z,8.67
2018-09-23T10:50:46.192Z,8.07
2018-09-23T10:53:14.271Z,9.23
2018-09-23T10:55:42.423Z,8.77
2018-09-23T10:58:10.523Z,8.63
2018-09-23T11:00:38.609Z,7.07
2018-09-23T11:03:07.150Z,6.17
2018-09-23T11:05:35.294Z,6.83
2018-09-23T11:08:03.543Z,5.93
2018-09-23T11:10:31.674Z,5.10
2018-09-23T11:12:59.863Z,5.50
2018-09-23T11:15:27.945Z,5.80
2018-09-23T11:17:56.031Z,5.90
2018-09-23T11:20:24.123Z,6.20
2018-09-23T11:22:52.356Z,7.27
2018-09-23T11:25:20.651Z,7.57
2018-09-23T11:27:48.757Z,8.20
2018-09-23T11:30:16.838Z,9.37
2018-09-23T11:32:44.943Z,10.03
2018-09-23T11:35:13.018Z,9.13
2018-09-23T11:37:41.107Z,10.53
2018-09-23T11:40:09.241Z,8.80
2018-09-23T11:42:37.684Z,8.37
2018-09-23T11:45:06.071Z,8.77
2018-09-23T11:47:34.202Z,11.78
2018-09-23T11:50:02.367Z,9.60
2018-09-23T11:52:30.451Z,9.43
2018-09-23T11:54:58.531Z,9.50
2018-09-23T11:57:26.623Z,9.00
2018-09-23T11:59:54.888Z,8.23
2018-09-23T12:02:23.191Z,7.70
2018-09-23T12:04:51.330Z,7.80
2018-09-23T12:07:19.656Z,8.93
2018-09-23T12:09:47.732Z,9.00
2018-09-23T12:12:15.856Z,9.43
2018-09-23T12:14:44.104Z,9.40
2018-09-23T12:17:12.231Z,9.40
2018-09-23T12:19:40.351Z,9.73
2018-09-23T12:22:08.441Z,10.00
2018-09-23T12:24:36.551Z,10.00
2018-09-23T12:27:04.687Z,9.47
2018-09-23T12:29:32.843Z,10.63
2018-09-23T12:32:00.934Z,9.77
2018-09-23T12:34:29.026Z,9.77
2018-09-23T12:36:57.195Z,9.67
2018-09-23T12:39:29.886Z,10.00
2018-09-23T12:41:58.687Z,8.73
2018-09-23T12:44:26.817Z,10.00
2018-09-23T12:46:54.919Z,9.43
2018-09-23T12:49:23.107Z,8.20
2018-09-23T12:51:51.487Z,7.83
2018-09-23T12:54:19.755Z,8.07
2018-09-23T12:56:47.899Z,7.00
2018-09-23T12:59:16.051Z,7.93
2018-09-23T13:01:44.145Z,8.03
2018-09-23T13:04:12.310Z,7.63
2018-09-23T13:06:40.391Z,8.30
2018-09-23T13:09:08.663Z,7.93
2018-09-23T13:11:37.403Z,7.67
2018-09-23T13:14:05.825Z,7.33
2018-09-23T13:16:33.923Z,6.07
2018-09-23T13:19:02.029Z,6.67
2018-09-23T13:21:30.175Z,4.90
2018-09-23T13:23:58.279Z,5.13
2018-09-23T13:26:26.372Z,3.10
2018-09-23T13:28:54.541Z,2.40
2018-09-23T13:31:22.578Z,2.57
2018-09-23T13:33:50.706Z,2.33
2018-09-23T13:36:18.787Z,2.47
2018-09-23T13:38:46.919Z,2.20
2018-09-23T13:41:15.104Z,2.23
2018-09-23T13:43:43.304Z,2.80
2018-09-23T13:46:11.681Z,2.37
2018-09-23T13:48:39.798Z,1.87
2018-09-23T13:51:07.937Z,1.90
2018-09-23T13:53:36.095Z,1.30
2018-09-23T13:56:04.245Z,0.97
2018-09-23T13:58:32.391Z,1.40
2018-09-23T14:01:00.530Z,1.20
2018-09-23T14:03:28.623Z,1.27
2018-09-23T14:05:57.259Z,1.10
2018-09-23T14:08:26.360Z,1.13
2018-09-23T14:10:55.346Z,0.80
2018-09-23T14:13:23.470Z,1.20
2018-09-23T14:15:51.991Z,1.30
2018-09-23T14:18:20.212Z,1.03
2018-09-23T14:20:48.302Z,0.90
2018-09-23T14:23:16.493Z,0.90
2018-09-23T14:25:44.683Z,0.80
2018-09-23T14:28:12.786Z,0.93
2018-09-23T14:30:40.980Z,0.80
2018-09-23T14:33:09.157Z,0.67
2018-09-23T14:35:37.240Z,0.70
2018-09-23T14:38:05.523Z,0.80
2018-09-23T14:40:33.694Z,0.90
2018-09-23T14:43:01.914Z,0.90
2018-09-23T14:45:30.056Z,0.88
2018-09-23T14:47:58.172Z,0.80
2018-09-23T14:50:26.286Z,1.00
2018-09-23T14:52:54.363Z,0.90
2018-09-23T14:55:22.664Z,0.67
2018-09-23T14:57:50.824Z,0.90
2018-09-23T15:00:18.967Z,0.87
2018-09-23T15:02:47.134Z,0.67
2018-09-23T15:05:15.214Z,0.90
2018-09-23T15:07:43.347Z,0.67
2018-09-23T15:10:11.546Z,0.50
2018-09-23T15:12:39.720Z,0.67
2018-09-23T15:15:07.955Z,0.60
2018-09-23T15:17:36.256Z,0.80
2018-09-23T15:20:04.527Z,0.50
2018-09-23T15:22:32.987Z,0.87
2018-09-23T15:25:01.266Z,0.70
2018-09-23T15:27:29.436Z,0.80
2018-09-23T15:29:57.610Z,0.60
2018-09-23T15:32:25.763Z,0.67
2018-09-23T15:34:53.926Z,0.77
2018-09-23T15:37:22.118Z,1.17
2018-09-23T15:39:50.258Z,0.80
2018-09-23T15:42:18.386Z,1.00
2018-09-23T15:44:47.164Z,0.90
2018-09-23T15:47:15.387Z,1.07
2018-09-23T15:49:43.575Z,1.00
2018-09-23T15:52:11.761Z,0.80
2018-09-23T15:54:40.874Z,0.90
2018-09-23T15:57:09.050Z,0.90
2018-09-23T15:59:37.256Z,0.80
2018-09-23T16:02:06.719Z,0.73
2018-09-23T16:04:35.165Z,1.13
2018-09-23T16:07:03.261Z,1.20
2018-09-23T16:09:31.494Z,1.20
2018-09-23T16:11:59.591Z,0.87
2018-09-23T16:14:27.723Z,0.90
2018-09-23T16:16:55.976Z,1.00
2018-09-23T16:19:25.512Z,0.77
2018-09-23T16:21:53.635Z,0.90
2018-09-23T16:24:21.729Z,1.00
2018-09-23T16:26:49.938Z,0.80
2018-09-23T16:29:18.113Z,1.00
2018-09-23T16:31:46.314Z,0.97
2018-09-23T16:34:14.462Z,1.00
2018-09-23T16:36:43.655Z,0.63
2018-09-23T16:39:12.078Z,1.00
2018-09-23T16:41:40.240Z,0.90
2018-09-23T16:44:08.758Z,1.20
2018-09-23T16:46:36.863Z,1.00
2018-09-23T16:49:04.989Z,1.80
2018-09-23T16:51:33.102Z,3.07
2018-09-23T16:54:01.242Z,2.03
2018-09-23T16:56:29.367Z,1.80
2018-09-23T16:58:57.534Z,1.30
2018-09-23T17:01:25.707Z,1.23
2018-09-23T17:03:53.817Z,1.20
2018-09-23T17:06:21.965Z,1.30
2018-09-23T17:08:50.062Z,1.33
2018-09-23T17:11:18.142Z,1.30
2018-09-23T17:13:46.269Z,1.10
2018-09-23T17:16:14.358Z,1.03
2018-09-23T17:18:42.495Z,1.20
2018-09-23T17:21:10.593Z,1.70
2018-09-23T17:23:38.710Z,1.00
2018-09-23T17:26:06.850Z,1.13
2018-09-23T17:28:34.960Z,1.60
2018-09-23T17:31:03.007Z,1.72
2018-09-23T17:33:31.137Z,1.20
2018-09-23T17:35:59.245Z,1.37
2018-09-23T17:38:27.335Z,1.40
2018-09-23T17:40:55.456Z,1.63
2018-09-23T17:43:23.547Z,1.50
2018-09-23T17:45:51.648Z,1.40
2018-09-23T17:48:19.778Z,1.37
2018-09-23T17:50:47.873Z,1.53
2018-09-23T17:53:16.007Z,0.97
2018-09-23T17:55:44.103Z,1.57
2018-09-23T17:58:12.201Z,1.27
2018-09-23T18:00:42.402Z,1.67
2018-09-23T18:03:10.987Z,1.30
2018-09-23T18:05:39.100Z,2.07
2018-09-23T18:08:07.444Z,1.93
2018-09-23T18:10:35.514Z,1.33
2018-09-23T18:13:03.631Z,1.37
2018-09-23T18:15:31.790Z,1.33
2018-09-23T18:17:59.866Z,1.10
2018-09-23T18:20:27.926Z,1.30
2018-09-23T18:22:56.047Z,1.40
2018-09-23T18:25:24.116Z,1.00
2018-09-23T18:27:52.197Z,1.17
2018-09-23T18:30:20.539Z,1.40
2018-09-23T18:32:48.599Z,1.43
2018-09-23T18:35:16.687Z,1.90
2018-09-23T18:37:44.849Z,1.43
2018-09-23T18:40:12.875Z,1.57
2018-09-23T18:42:40.990Z,1.13
2018-09-23T18:45:09.058Z,1.57
2018-09-23T18:47:37.495Z,1.43
2018-09-23T18:50:05.592Z,1.90
2018-09-23T18:52:33.685Z,1.70
2018-09-23T18:55:07.359Z,1.60
2018-09-23T18:57:35.419Z,1.70
2018-09-23T19:00:03.545Z,2.17
2018-09-23T19:02:31.652Z,1.90
2018-09-23T19:04:59.715Z,1.40
2018-09-23T19:07:27.852Z,1.60
2018-09-23T19:09:56.058Z,1.90
2018-09-23T19:12:24.130Z,1.70
2018-09-23T19:14:52.226Z,1.57
2018-09-23T19:17:20.303Z,1.90
2018-09-23T19:19:53.983Z,1.90
2018-09-23T19:22:27.556Z,2.43
2018-09-23T19:24:55.658Z,2.00
2018-09-23T19:27:23.973Z,1.70
2018-09-23T19:29:52.071Z,2.00
2018-09-23T19:32:20.189Z,1.93
2018-09-23T19:34:48.275Z,1.80
2018-09-23T19:37:16.388Z,1.80
2018-09-23T19:39:44.486Z,1.80
2018-09-23T19:42:12.555Z,1.60
2018-09-23T19:44:40.625Z,1.20
2018-09-23T19:47:08.700Z,1.37
2018-09-23T19:49:36.783Z,2.67
2018-09-23T19:52:04.927Z,1.20
2018-09-23T19:54:33.070Z,1.40
2018-09-23T19:57:01.172Z,1.17
2018-09-23T19:59:29.288Z,2.93
2018-09-23T20:01:57.390Z,10.00
2018-09-23T20:04:25.575Z,16.83
2018-09-23T20:06:53.691Z,33.23
2018-09-23T20:09:21.739Z,22.63
2018-09-23T20:11:49.863Z,28.27
2018-09-23T20:14:17.954Z,24.97
2018-09-23T20:16:46.056Z,10.50
2018-09-23T20:19:14.143Z,5.40
2018-09-23T20:21:42.326Z,2.90
2018-09-23T20:24:10.395Z,2.77
2018-09-23T20:26:38.486Z,2.40
2018-09-23T20:29:06.582Z,2.10
2018-09-23T20:31:35.077Z,2.97
2018-09-23T20:34:03.439Z,2.50
2018-09-23T20:36:31.766Z,2.30
2018-09-23T20:38:59.958Z,2.07
2018-09-23T20:41:28.048Z,2.47
2018-09-23T20:43:56.148Z,2.10
2018-09-23T20:46:24.229Z,2.47
2018-09-23T20:48:52.607Z,2.07
2018-09-23T20:51:20.685Z,2.20
2018-09-23T20:53:48.883Z,1.93
2018-09-23T20:56:16.911Z,1.90
2018-09-23T20:58:45.092Z,1.70
2018-09-23T21:01:13.171Z,2.40
2018-09-23T21:03:41.244Z,1.63
2018-09-23T21:06:09.403Z,2.17
2018-09-23T21:08:37.626Z,1.97
2018-09-23T21:11:05.795Z,2.27
2018-09-23T21:13:33.898Z,1.80
2018-09-23T21:16:01.987Z,1.97
2018-09-23T21:18:30.107Z,2.03
2018-09-23T21:20:58.248Z,2.00
2018-09-23T21:23:26.425Z,1.53
2018-09-23T21:25:54.614Z,1.80
2018-09-23T21:28:22.717Z,1.80
2018-09-23T21:30:50.827Z,1.93
2018-09-23T21:33:19.063Z,1.80
2018-09-23T21:35:47.234Z,1.80
2018-09-23T21:38:15.249Z,1.60
2018-09-23T21:40:43.346Z,1.93
2018-09-23T21:43:11.467Z,2.20
2018-09-23T21:45:39.615Z,2.10
2018-09-23T21:48:07.955Z,1.50
2018-09-23T21:50:36.091Z,1.60
2018-09-23T21:53:04.174Z,2.33
2018-09-23T21:55:32.298Z,1.60
2018-09-23T21:58:00.419Z,1.80
2018-09-23T22:00:33.956Z,2.13
2018-09-23T22:03:02.036Z,2.07
2018-09-23T22:05:30.123Z,2.00
2018-09-23T22:07:58.211Z,2.23
2018-09-23T22:10:26.335Z,2.10
2018-09-23T22:12:54.462Z,1.60
2018-09-23T22:15:24.866Z,2.00
2018-09-23T22:17:53.932Z,2.33
2018-09-23T22:20:22.031Z,1.50
2018-09-23T22:22:50.133Z,1.60
2018-09-23T22:25:18.210Z,1.97
2018-09-23T22:27:46.267Z,1.80
2018-09-23T22:30:14.477Z,2.05
2018-09-23T22:32:42.475Z,1.70
2018-09-23T22:35:10.542Z,1.70
2018-09-23T22:37:38.628Z,1.67
2018-09-23T22:40:07.311Z,2.03
2018-09-23T22:42:36.407Z,1.70
2018-09-23T22:45:04.990Z,1.53
2018-09-23T22:47:33.094Z,1.77
2018-09-23T22:50:01.238Z,1.63
2018-09-23T22:52:29.569Z,1.70
2018-09-23T22:54:57.778Z,1.50
2018-09-23T22:57:25.927Z,1.30
2018-09-23T22:59:54.138Z,2.23
2018-09-23T23:02:22.221Z,1.80
2018-09-23T23:04:50.486Z,1.33
2018-09-23T23:07:18.663Z,1.63
2018-09-23T23:09:46.954Z,1.50
2018-09-23T23:12:15.052Z,1.20
2018-09-23T23:14:43.372Z,1.00
2018-09-23T23:17:11.478Z,1.43
2018-09-23T23:19:39.574Z,1.20
2018-09-23T23:22:07.969Z,1.37
2018-09-23T23:24:36.072Z,1.57
2018-09-23T23:27:04.170Z,1.40
2018-09-23T23:29:32.262Z,1.50
2018-09-23T23:32:00.607Z,1.30
2018-09-23T23:34:28.690Z,1.13
2018-09-23T23:36:57.118Z,1.70
2018-09-23T23:39:25.207Z,1.50
2018-09-23T23:41:53.286Z,1.10
2018-09-23T23:44:21.367Z,1.20
2018-09-23T23:46:49.438Z,1.40
2018-09-23T23:49:17.542Z,1.73
2018-09-23T23:51:45.631Z,1.50
2018-09-23T23:54:13.756Z,1.30
2018-09-23T23:56:41.842Z,1.40
2018-09-23T23:59:09.948Z,1.23
